Moondance — DHGU2 — position and weather

sailwx.info

Track history (hours):
 
Tides and Currents Weather Stations Pressure Air Temp Water Temp Dewpoint Dewpoint Depression Visibility Wind Speed Wind Dir Waves Ship Positions

Moondance

Last reported at 2017-Sep-21 13:15 UTC. Time now 2017-Oct-19 18:44 UTC.
Position N 38°50' E 001°24'.
Warning: this ship's position is 28 days out of date.

Length 12 m.

Type: Sailing vessel. MMSI: 211632320.

Date/timePositionNaut miles runAvg speedWind from/ knotsBaromVisibWave heightAir tempDewpointWater temp
2017-Sep-21 13:15N 38°50' E 001°24'1 3.2
2017-Sep-21 12:52N 38°49' E 001°24'1 2.9
2017-Sep-21 12:31N 38°49' E 001°25'3 5.6
2017-Sep-21 12:00N 38°52' E 001°27'3 5.4
2017-Sep-21 11:30N 38°54' E 001°29'2 5.0
2017-Sep-21 11:00N 38°56' E 001°31'3 0.2
2017-Sep-20 15:19N 38°59' E 001°32'1 1.8
2017-Sep-20 14:53N 38°58' E 001°33'5 3.2
2017-Sep-20 13:19N 38°54' E 001°34'2 4.4
2017-Sep-20 12:54N 38°52' E 001°33'2 4.3
2017-Sep-20 12:29N 38°51' E 001°31'2 3.8
2017-Sep-20 12:00N 38°50' E 001°29'  
Track history (hours):
 
Tides and Currents Weather Stations Pressure Air Temp Water Temp Dewpoint Dewpoint Depression Visibility Wind Speed Wind Dir Waves Ship Positions

Moondance

Last reported at 2017-Sep-21 13:15 UTC. Time now 2017-Oct-19 18:44 UTC.
Position N 38°50' E 001°24'.
Warning: this ship's position is 28 days out of date.

Length 12 m.

Type: Sailing vessel. MMSI: 211632320.

Date/timePositionNaut miles runAvg speedWind from/ knotsBaromVisibWave heightAir tempDewpointWater temp
2017-Sep-21 13:15N 38°50' E 001°24'1 3.2
2017-Sep-21 12:52N 38°49' E 001°24'1 2.9
2017-Sep-21 12:31N 38°49' E 001°25'3 5.6
2017-Sep-21 12:00N 38°52' E 001°27'3 5.4
2017-Sep-21 11:30N 38°54' E 001°29'2 5.0
2017-Sep-21 11:00N 38°56' E 001°31'3 0.2
2017-Sep-20 15:19N 38°59' E 001°32'1 1.8
2017-Sep-20 14:53N 38°58' E 001°33'5 3.2
2017-Sep-20 13:19N 38°54' E 001°34'2 4.4
2017-Sep-20 12:54N 38°52' E 001°33'2 4.3
2017-Sep-20 12:29N 38°51' E 001°31'2 3.8
2017-Sep-20 12:00N 38°50' E 001°29'  

Dump ship's entire track history